createdAt,value
2022-08-09T00:01:55.483Z,56.26
2022-08-09T00:04:15.237Z,56.22
2022-08-09T00:06:33.592Z,56.65
2022-08-09T00:08:47.845Z,56.64
2022-08-09T00:11:24.648Z,56.82
2022-08-09T00:13:34.064Z,56.88
2022-08-09T00:16:00.084Z,57.02
2022-08-09T00:18:15.901Z,57.22
2022-08-09T00:20:31.795Z,57.14
2022-08-09T00:22:48.429Z,57.11
2022-08-09T00:24:55.440Z,57.22
2022-08-09T00:27:03.857Z,57.11
2022-08-09T00:29:12.203Z,57.34
2022-08-09T00:31:59.630Z,57.30
2022-08-09T00:34:09.143Z,57.34
2022-08-09T00:36:20.577Z,57.44
2022-08-09T00:38:28.542Z,57.54
2022-08-09T00:40:37.200Z,57.32
2022-08-09T00:44:13.140Z,57.73
2022-08-09T00:45:17.852Z,58.07
2022-08-09T00:47:26.239Z,57.67
2022-08-09T00:49:42.378Z,57.84
2022-08-09T00:51:58.431Z,57.97
2022-08-09T00:54:10.032Z,57.79
2022-08-09T00:56:18.993Z,57.92
2022-08-09T00:58:27.656Z,57.83
2022-08-09T01:00:35.175Z,58.06
2022-08-09T01:03:12.542Z,57.90
2022-08-09T01:05:54.823Z,58.20
2022-08-09T01:08:10.690Z,58.16
2022-08-09T01:10:35.845Z,57.88
2022-08-09T01:13:11.822Z,58.30
2022-08-09T01:15:22.611Z,58.30
2022-08-09T01:17:36.949Z,58.29
2022-08-09T01:20:02.840Z,58.38
2022-08-09T01:22:42.592Z,58.36
2022-08-09T01:25:07.212Z,58.24
2022-08-09T01:27:13.326Z,58.43
2022-08-09T01:29:20.191Z,58.49
2022-08-09T01:32:29.810Z,58.67
2022-08-09T01:34:04.156Z,58.64
2022-08-09T01:36:16.403Z,58.64
2022-08-09T01:38:28.767Z,58.57
2022-08-09T01:40:37.076Z,58.47
2022-08-09T01:42:43.275Z,58.51
2022-08-09T01:44:49.339Z,58.64
2022-08-09T01:46:53.990Z,58.47
2022-08-09T01:49:12.683Z,58.52
2022-08-09T01:51:22.980Z,58.38
2022-08-09T01:53:41.170Z,58.16
2022-08-09T01:55:48.781Z,58.29
2022-08-09T01:57:56.176Z,58.05
2022-08-09T02:00:19.202Z,58.24
2022-08-09T02:02:30.806Z,57.81
2022-08-09T02:04:40.590Z,57.89
2022-08-09T02:06:58.859Z,57.75
2022-08-09T02:09:02.217Z,58.10
2022-08-09T02:11:16.700Z,57.95
2022-08-09T02:13:26.253Z,58.79
2022-08-09T02:15:50.542Z,59.22
2022-08-09T02:18:09.556Z,59.61
2022-08-09T02:20:15.879Z,59.61
2022-08-09T02:22:38.059Z,60.06
2022-08-09T02:24:51.765Z,60.33
2022-08-09T02:26:59.669Z,60.51
2022-08-09T02:29:14.391Z,60.74
2022-08-09T02:31:32.705Z,60.84
2022-08-09T02:34:07.467Z,61.11
2022-08-09T02:36:14.742Z,61.39
2022-08-09T02:38:29.715Z,61.50
2022-08-09T02:40:36.763Z,61.16
2022-08-09T02:42:46.381Z,61.18
2022-08-09T02:45:08.684Z,61.47
2022-08-09T02:47:14.689Z,61.79
2022-08-09T02:49:19.813Z,61.89
2022-08-09T02:51:40.484Z,61.87
2022-08-09T02:53:52.907Z,62.04
2022-08-09T02:56:07.190Z,62.22
2022-08-09T02:58:37.911Z,62.05
2022-08-09T03:00:57.951Z,62.20
2022-08-09T03:03:02.834Z,61.68
2022-08-09T03:05:11.301Z,61.76
2022-08-09T03:07:21.076Z,61.54
2022-08-09T03:09:24.822Z,61.62
2022-08-09T03:12:04.553Z,61.58
2022-08-09T03:13:59.682Z,61.86
2022-08-09T03:16:06.555Z,61.76
2022-08-09T03:18:12.154Z,61.96
2022-08-09T03:20:15.736Z,62.21
2022-08-09T03:22:30.433Z,62.29
2022-08-09T03:24:42.802Z,62.77
2022-08-09T03:26:56.333Z,62.57
2022-08-09T03:28:59.849Z,63.01
2022-08-09T03:31:21.114Z,62.74
2022-08-09T03:33:54.166Z,62.78
2022-08-09T03:36:15.628Z,63.02
2022-08-09T03:38:28.660Z,63.34
2022-08-09T03:40:33.805Z,63.67
2022-08-09T03:42:36.722Z,64.00
2022-08-09T03:44:41.599Z,64.18
2022-08-09T03:46:46.652Z,63.83
2022-08-09T03:48:56.974Z,63.85
2022-08-09T03:51:03.763Z,63.65
2022-08-09T03:53:10.740Z,63.73
2022-08-09T03:55:14.653Z,63.29
2022-08-09T03:57:24.354Z,63.30
2022-08-09T03:59:52.769Z,62.82
2022-08-09T04:01:50.911Z,62.48
2022-08-09T04:04:01.427Z,62.43
2022-08-09T04:06:07.145Z,63.37
2022-08-09T04:08:09.521Z,63.40
2022-08-09T04:10:11.896Z,63.14
2022-08-09T04:12:30.148Z,62.87
2022-08-09T04:14:53.916Z,62.78
2022-08-09T04:17:00.680Z,62.76
2022-08-09T04:19:02.739Z,63.00
2022-08-09T04:21:13.111Z,62.97
2022-08-09T04:23:17.719Z,63.29
2022-08-09T04:25:25.305Z,63.14
2022-08-09T04:27:29.112Z,63.41
2022-08-09T04:29:31.477Z,63.38
2022-08-09T04:31:37.521Z,62.94
2022-08-09T04:33:56.795Z,62.66
2022-08-09T04:36:01.975Z,62.54
2022-08-09T04:38:05.133Z,62.47
2022-08-09T04:40:09.350Z,61.99
2022-08-09T04:42:12.349Z,61.34
2022-08-09T04:44:18.145Z,61.30
2022-08-09T04:46:38.317Z,61.06
2022-08-09T04:48:50.362Z,60.70
2022-08-09T04:51:00.319Z,60.73
2022-08-09T04:53:03.958Z,60.64
2022-08-09T04:55:12.340Z,60.82
2022-08-09T04:57:15.525Z,60.72
2022-08-09T04:59:23.527Z,60.77
2022-08-09T05:01:26.202Z,60.40
2022-08-09T05:03:40.946Z,60.50
2022-08-09T05:05:52.588Z,60.68
2022-08-09T05:08:07.093Z,60.46
2022-08-09T05:10:10.068Z,60.53
2022-08-09T05:12:12.575Z,60.60
2022-08-09T05:14:14.942Z,60.65
2022-08-09T05:16:18.901Z,60.49
2022-08-09T05:18:55.366Z,60.44
2022-08-09T05:20:52.998Z,60.44
2022-08-09T05:23:55.452Z,60.07
2022-08-09T05:25:17.644Z,60.26
2022-08-09T05:27:20.956Z,60.81
2022-08-09T05:29:31.166Z,60.96
2022-08-09T05:31:47.413Z,60.72
2022-08-09T05:33:52.942Z,60.71
2022-08-09T05:35:57.242Z,60.59
2022-08-09T05:37:59.431Z,60.03
2022-08-09T05:40:01.838Z,59.65
2022-08-09T05:42:06.054Z,60.25
2022-08-09T05:44:08.241Z,60.14
2022-08-09T05:46:11.410Z,59.65
2022-08-09T05:48:14.113Z,59.79
2022-08-09T05:50:25.456Z,59.71
2022-08-09T05:52:52.306Z,59.39
2022-08-09T05:55:06.708Z,59.99
2022-08-09T05:57:12.829Z,59.86
2022-08-09T05:59:20.942Z,59.92
2022-08-09T06:01:34.162Z,59.78
2022-08-09T06:03:58.193Z,59.96
2022-08-09T06:06:05.739Z,60.09
2022-08-09T06:08:12.949Z,60.34
2022-08-09T06:10:19.740Z,60.09
2022-08-09T06:12:26.359Z,60.27
2022-08-09T06:14:28.899Z,59.66
2022-08-09T06:16:31.092Z,59.70
2022-08-09T06:18:34.973Z,59.76
2022-08-09T06:20:38.781Z,60.66
2022-08-09T06:22:42.462Z,59.99
2022-08-09T06:24:48.100Z,59.91
2022-08-09T06:26:52.331Z,59.64
2022-08-09T06:29:00.260Z,59.25
2022-08-09T06:31:06.471Z,58.72
2022-08-09T06:33:40.752Z,58.71
2022-08-09T06:35:55.848Z,58.41
2022-08-09T06:38:06.797Z,58.64
2022-08-09T06:40:20.285Z,58.64
2022-08-09T06:42:28.534Z,58.13
2022-08-09T06:44:34.685Z,58.45
2022-08-09T06:46:39.501Z,58.00
2022-08-09T06:48:45.560Z,58.36
2022-08-09T06:50:49.130Z,57.89
2022-08-09T06:52:55.540Z,57.78
2022-08-09T06:55:00.830Z,57.83
2022-08-09T06:57:16.094Z,57.88
2022-08-09T07:00:51.427Z,58.11
2022-08-09T07:01:54.414Z,58.26
2022-08-09T07:04:06.300Z,58.17
2022-08-09T07:06:13.080Z,58.11
2022-08-09T07:08:18.674Z,58.30
2022-08-09T07:10:32.030Z,57.89
2022-08-09T07:12:38.564Z,57.37
2022-08-09T07:14:44.914Z,56.88
2022-08-09T07:16:55.332Z,56.91
2022-08-09T07:19:00.331Z,56.81
2022-08-09T07:21:03.231Z,56.18
2022-08-09T07:23:18.633Z,56.05
2022-08-09T07:25:22.073Z,56.43
2022-08-09T07:27:34.380Z,55.53
2022-08-09T07:29:46.247Z,55.80
2022-08-09T07:31:49.162Z,55.95
2022-08-09T07:33:53.296Z,56.41
2022-08-09T07:35:59.433Z,56.51
2022-08-09T07:38:03.241Z,56.40
2022-08-09T07:40:06.151Z,56.59
2022-08-09T07:42:10.311Z,56.20
2022-08-09T07:44:12.560Z,56.60
2022-08-09T07:46:19.145Z,56.54
2022-08-09T07:48:28.393Z,56.05
2022-08-09T07:50:36.330Z,55.75
2022-08-09T07:52:39.071Z,56.19
2022-08-09T07:54:41.912Z,55.95
2022-08-09T07:56:49.413Z,55.74
2022-08-09T07:58:52.315Z,54.67
2022-08-09T08:00:58.771Z,54.61
2022-08-09T08:03:09.809Z,53.34
2022-08-09T08:05:18.102Z,53.18
2022-08-09T08:08:43.499Z,52.51
2022-08-09T08:09:53.571Z,52.33
2022-08-09T08:12:24.707Z,51.93
2022-08-09T08:14:35.749Z,51.20
2022-08-09T08:16:40.221Z,51.09
2022-08-09T08:19:04.816Z,49.72
2022-08-09T08:21:08.648Z,49.79
2022-08-09T08:23:16.821Z,49.89
2022-08-09T08:25:22.496Z,49.96
2022-08-09T08:27:45.120Z,49.23
2022-08-09T08:29:54.719Z,49.40
2022-08-09T08:32:03.273Z,49.25
2022-08-09T08:34:08.843Z,49.48
2022-08-09T08:36:28.267Z,49.50
2022-08-09T08:38:33.105Z,49.36
2022-08-09T08:40:42.527Z,49.26
2022-08-09T08:42:53.490Z,49.79
2022-08-09T08:45:13.588Z,49.04
2022-08-09T08:47:18.350Z,48.63
2022-08-09T08:49:28.147Z,47.92
2022-08-09T08:52:01.941Z,48.53
2022-08-09T08:54:11.351Z,49.02
2022-08-09T08:56:25.244Z,49.01
2022-08-09T08:58:36.157Z,46.97
2022-08-09T09:00:46.844Z,47.43
2022-08-09T09:03:08.588Z,46.38
2022-08-09T09:05:33.333Z,45.60
2022-08-09T09:07:48.405Z,46.68
2022-08-09T09:10:02.027Z,47.30
2022-08-09T09:12:16.411Z,46.65
2022-08-09T09:14:26.750Z,47.74
2022-08-09T09:16:35.789Z,47.40
2022-08-09T09:18:48.795Z,46.57
2022-08-09T09:21:03.765Z,47.88
2022-08-09T09:23:49.950Z,47.20
2022-08-09T09:26:26.163Z,46.58
2022-08-09T09:28:58.921Z,47.24
2022-08-09T09:31:00.640Z,47.47
2022-08-09T09:33:17.396Z,47.43
2022-08-09T09:35:21.012Z,48.21
2022-08-09T09:37:33.931Z,48.08
2022-08-09T09:39:55.507Z,47.28
2022-08-09T09:42:08.927Z,46.49
2022-08-09T09:44:25.325Z,46.28
2022-08-09T09:46:45.713Z,46.82
2022-08-09T09:49:06.357Z,45.84
2022-08-09T09:51:11.686Z,45.90
2022-08-09T09:53:44.199Z,45.34
2022-08-09T09:56:05.259Z,45.36
2022-08-09T09:58:15.823Z,45.68
2022-08-09T10:00:26.479Z,45.33
2022-08-09T10:02:29.374Z,44.21
2022-08-09T10:04:32.436Z,42.79
2022-08-09T10:06:47.100Z,43.76
2022-08-09T10:09:02.747Z,41.88
2022-08-09T10:11:59.525Z,41.67
2022-08-09T10:13:46.392Z,41.94
2022-08-09T10:16:54.881Z,42.50
2022-08-09T10:18:15.402Z,42.20
2022-08-09T10:20:27.512Z,42.88
2022-08-09T10:22:38.271Z,43.11
2022-08-09T10:24:43.918Z,42.80
2022-08-09T10:26:53.081Z,41.83
2022-08-09T10:29:21.353Z,40.64
2022-08-09T10:34:09.776Z,41.79
2022-08-09T10:36:20.561Z,41.04
2022-08-09T10:38:34.456Z,39.39
2022-08-09T10:40:50.985Z,41.23
2022-08-09T10:42:57.891Z,41.21
2022-08-09T10:45:10.734Z,40.04
2022-08-09T10:48:20.184Z,40.01
2022-08-09T10:50:33.601Z,39.59
2022-08-09T10:52:45.894Z,41.26
2022-08-09T10:54:48.201Z,39.66
2022-08-09T10:57:11.830Z,39.16
2022-08-09T10:59:30.947Z,38.16
2022-08-09T11:03:14.212Z,38.19
2022-08-09T11:04:29.800Z,38.61
2022-08-09T11:06:32.385Z,36.96
2022-08-09T11:08:47.742Z,37.29
2022-08-09T11:10:56.590Z,37.17
2022-08-09T11:13:51.426Z,37.89
2022-08-09T11:16:04.380Z,36.83
2022-08-09T11:18:11.290Z,37.56
2022-08-09T11:20:54.664Z,36.88
2022-08-09T11:25:46.135Z,35.79
2022-08-09T11:28:56.457Z,37.74
2022-08-09T11:32:13.125Z,36.85
2022-08-09T11:34:55.800Z,36.59
2022-08-09T11:40:35.931Z,36.10
2022-08-09T11:46:00.920Z,36.31
2022-08-09T11:48:58.701Z,36.25
2022-08-09T11:53:02.062Z,36.84
2022-08-09T12:12:05.220Z,35.82
2022-08-09T12:15:08.279Z,35.74
2022-08-09T12:18:30.137Z,34.54
2022-08-09T12:21:50.251Z,34.77
2022-08-09T12:24:53.649Z,34.50
2022-08-09T12:29:52.710Z,34.86
2022-08-09T12:30:42.606Z,35.73
2022-08-09T12:33:15.858Z,35.57
2022-08-09T12:36:27.365Z,34.90
2022-08-09T12:40:05.704Z,34.00
2022-08-09T12:47:12.377Z,34.12
2022-08-09T12:52:18.199Z,33.12
2022-08-09T13:34:08.777Z,35.25
2022-08-09T13:36:39.606Z,35.35
2022-08-09T13:41:55.512Z,35.01
2022-08-09T13:42:18.206Z,34.96
2022-08-09T13:44:48.712Z,35.30
2022-08-09T13:47:26.917Z,36.04
2022-08-09T13:53:41.212Z,35.16
2022-08-09T13:56:37.777Z,35.24
2022-08-09T13:59:42.116Z,35.42
2022-08-09T14:02:26.036Z,40.24
2022-08-09T14:04:49.377Z,36.71
2022-08-09T14:08:15.913Z,36.66
2022-08-09T14:14:26.873Z,36.58
2022-08-09T14:16:42.360Z,35.88
2022-08-09T14:18:59.906Z,35.98
2022-08-09T14:21:02.769Z,35.74
2022-08-09T14:23:22.772Z,36.10
2022-08-09T14:25:42.650Z,36.08
2022-08-09T14:27:56.769Z,35.71
2022-08-09T14:30:35.528Z,36.15
2022-08-09T14:37:41.268Z,36.34
2022-08-09T14:39:57.991Z,36.62
2022-08-09T14:42:38.529Z,37.79
2022-08-09T14:46:46.657Z,37.84
2022-08-09T14:48:36.667Z,37.62
2022-08-09T14:50:39.727Z,37.70
2022-08-09T14:52:42.166Z,38.27
2022-08-09T14:54:57.741Z,38.54
2022-08-09T14:59:55.977Z,38.06
2022-08-09T15:02:01.857Z,38.96
2022-08-09T15:04:38.478Z,38.33
2022-08-09T15:10:14.075Z,39.47
2022-08-09T15:12:25.696Z,39.15
2022-08-09T15:14:43.774Z,39.01
2022-08-09T15:16:49.230Z,39.40
2022-08-09T15:18:59.819Z,38.71
2022-08-09T15:21:55.733Z,38.53
2022-08-09T15:24:06.020Z,38.74
2022-08-09T15:25:58.257Z,39.05
2022-08-09T15:28:02.659Z,39.01
2022-08-09T15:31:00.390Z,38.25
2022-08-09T15:32:30.464Z,38.82
2022-08-09T15:34:35.330Z,38.91
2022-08-09T15:36:58.229Z,38.67
2022-08-09T15:39:05.344Z,38.88
2022-08-09T15:41:22.013Z,39.04
2022-08-09T15:43:24.983Z,38.67
2022-08-09T15:46:07.662Z,38.44
2022-08-09T15:48:28.151Z,38.95
2022-08-09T15:50:30.569Z,38.68
2022-08-09T15:52:37.044Z,38.80
2022-08-09T15:54:48.358Z,39.60
2022-08-09T15:56:54.610Z,38.86
2022-08-09T15:59:00.309Z,39.11
2022-08-09T16:01:07.548Z,38.91
2022-08-09T16:03:11.470Z,39.29
2022-08-09T16:05:53.298Z,39.88
2022-08-09T16:07:52.230Z,38.40
2022-08-09T16:10:02.292Z,38.69
2022-08-09T16:12:11.347Z,38.48
2022-08-09T16:14:14.290Z,38.46
2022-08-09T16:16:28.272Z,38.46
2022-08-09T16:18:32.969Z,37.93
2022-08-09T16:20:41.704Z,38.26
2022-08-09T16:22:48.770Z,38.18
2022-08-09T16:24:56.945Z,37.85
2022-08-09T16:27:05.172Z,37.83
2022-08-09T16:29:12.793Z,38.11
2022-08-09T16:32:11.081Z,37.96
2022-08-09T16:34:02.741Z,38.71
2022-08-09T16:36:13.146Z,39.23
2022-08-09T16:38:18.790Z,37.86
2022-08-09T16:40:29.954Z,38.06
2022-08-09T16:42:45.418Z,38.03
2022-08-09T16:44:48.002Z,38.14
2022-08-09T16:46:55.088Z,37.63
2022-08-09T16:49:18.709Z,37.22
2022-08-09T16:51:23.208Z,36.94
2022-08-09T16:53:32.212Z,36.78
2022-08-09T16:56:01.388Z,36.64
2022-08-09T16:58:09.395Z,36.79
2022-08-09T17:00:17.430Z,37.38
2022-08-09T17:02:23.322Z,37.43
2022-08-09T17:04:28.599Z,37.21
2022-08-09T17:06:33.333Z,37.28
2022-08-09T17:08:47.003Z,37.19
2022-08-09T17:11:03.549Z,37.28
2022-08-09T17:13:10.665Z,37.85
2022-08-09T17:15:30.748Z,37.63
2022-08-09T17:17:50.761Z,37.74
2022-08-09T17:20:32.891Z,38.04
2022-08-09T17:22:25.144Z,38.30
2022-08-09T17:24:35.269Z,38.43
2022-08-09T17:26:47.712Z,39.12
2022-08-09T17:28:56.149Z,39.12
2022-08-09T17:30:59.759Z,39.51
2022-08-09T17:33:05.044Z,39.73
2022-08-09T17:35:12.724Z,40.10
2022-08-09T17:37:19.696Z,40.00
2022-08-09T17:39:25.455Z,40.15
2022-08-09T17:41:49.942Z,40.55
2022-08-09T17:44:41.716Z,40.56
2022-08-09T17:46:16.399Z,40.46
2022-08-09T17:48:29.268Z,40.82
2022-08-09T17:50:36.773Z,40.97
2022-08-09T17:52:40.466Z,40.71
2022-08-09T17:54:45.470Z,40.76
2022-08-09T17:56:52.229Z,40.92
2022-08-09T17:58:56.830Z,41.40
2022-08-09T18:00:59.330Z,41.31
2022-08-09T18:03:01.714Z,41.22
2022-08-09T18:05:04.418Z,41.72
2022-08-09T18:07:07.785Z,41.75
2022-08-09T18:09:10.400Z,42.06
2022-08-09T18:11:16.201Z,42.52
2022-08-09T18:13:38.845Z,42.59
2022-08-09T18:16:05.456Z,42.63
2022-08-09T18:18:08.115Z,42.96
2022-08-09T18:21:00.836Z,43.25
2022-08-09T18:22:40.949Z,43.30
2022-08-09T18:24:53.360Z,43.54
2022-08-09T18:26:55.877Z,43.92
2022-08-09T18:30:39.440Z,43.86
2022-08-09T18:31:32.167Z,44.31
2022-08-09T18:33:53.112Z,44.20
2022-08-09T18:35:59.163Z,44.24
2022-08-09T18:38:02.449Z,44.46
2022-08-09T18:40:06.391Z,44.72
2022-08-09T18:42:14.789Z,44.93
2022-08-09T18:44:20.508Z,45.06
2022-08-09T18:46:51.472Z,45.08
2022-08-09T18:48:54.688Z,45.22
2022-08-09T18:51:06.009Z,45.89
2022-08-09T18:53:16.249Z,45.74
2022-08-09T18:55:45.635Z,46.10
2022-08-09T18:57:45.365Z,46.42
2022-08-09T19:00:01.486Z,46.52
2022-08-09T19:02:06.366Z,46.66
2022-08-09T19:04:09.356Z,46.84
2022-08-09T19:06:14.613Z,46.97
2022-08-09T19:08:22.070Z,47.15
2022-08-09T19:10:37.148Z,47.31
2022-08-09T19:12:55.519Z,47.33
2022-08-09T19:15:12.190Z,47.70
2022-08-09T19:17:16.348Z,47.91
2022-08-09T19:27:34.212Z,48.65
2022-08-09T19:30:25.247Z,48.88
2022-08-09T19:32:08.959Z,49.34
2022-08-09T19:34:22.193Z,49.35
2022-08-09T19:36:34.748Z,49.57
2022-08-09T19:38:39.819Z,49.74
2022-08-09T19:40:43.051Z,49.71
2022-08-09T19:42:49.720Z,50.21
2022-08-09T19:44:52.285Z,50.13
2022-08-09T19:46:54.683Z,50.42
2022-08-09T19:49:01.465Z,50.85
2022-08-09T19:51:05.659Z,50.94
2022-08-09T19:53:14.012Z,51.04
2022-08-09T19:55:16.967Z,51.49
2022-08-09T19:57:25.933Z,51.41
2022-08-09T19:59:58.343Z,51.75
2022-08-09T20:01:52.384Z,52.07
2022-08-09T20:04:25.089Z,52.21
2022-08-09T20:06:33.893Z,52.54
2022-08-09T20:08:38.836Z,52.96
2022-08-09T20:10:42.218Z,53.03
2022-08-09T20:12:49.042Z,53.49
2022-08-09T20:16:31.712Z,53.68
2022-08-09T20:17:54.570Z,53.92
2022-08-09T20:20:42.768Z,54.13
2022-08-09T20:22:48.857Z,54.45
2022-08-09T20:24:59.103Z,54.63
2022-08-09T20:27:11.572Z,54.82
2022-08-09T20:29:24.341Z,55.07
2022-08-09T20:31:51.412Z,54.97
2022-08-09T20:34:09.997Z,55.04
2022-08-09T20:36:33.087Z,55.58
2022-08-09T20:39:28.507Z,56.00
2022-08-09T20:41:41.486Z,56.18
2022-08-09T20:43:59.551Z,56.38
2022-08-09T20:46:41.621Z,56.59
2022-08-09T20:48:40.355Z,56.72
2022-08-09T20:50:47.066Z,57.10
2022-08-09T20:52:50.409Z,57.13
2022-08-09T20:54:56.057Z,57.20
2022-08-09T20:57:00.615Z,57.23
2022-08-09T20:59:03.028Z,57.31
2022-08-09T21:01:32.422Z,57.49
2022-08-09T21:03:31.711Z,57.61
2022-08-09T21:05:59.604Z,57.75
2022-08-09T21:08:04.496Z,57.96
2022-08-09T21:10:07.460Z,57.96
2022-08-09T21:14:18.082Z,57.66
2022-08-09T21:16:30.253Z,58.15
2022-08-09T21:20:02.415Z,58.04
2022-08-09T21:21:17.172Z,58.02
2022-08-09T21:23:21.808Z,57.97
2022-08-09T21:25:38.607Z,57.65
2022-08-09T21:27:52.639Z,57.66
2022-08-09T21:30:08.286Z,57.44
2022-08-09T21:32:15.384Z,57.12
2022-08-09T21:34:29.331Z,56.66
2022-08-09T21:36:32.167Z,56.51
2022-08-09T21:38:34.417Z,56.61
2022-08-09T21:40:41.961Z,57.06
2022-08-09T21:42:54.422Z,57.39
2022-08-09T21:45:01.342Z,57.39
2022-08-09T21:47:26.850Z,57.32
2022-08-09T21:49:42.690Z,58.09
2022-08-09T21:51:45.401Z,58.36
2022-08-09T21:53:47.876Z,58.68
2022-08-09T21:55:53.808Z,59.27
2022-08-09T21:58:00.332Z,59.63
2022-08-09T22:00:13.491Z,59.96
2022-08-09T22:02:17.726Z,60.18
2022-08-09T22:04:57.312Z,60.30
2022-08-09T22:07:07.401Z,60.33
2022-08-09T22:09:19.782Z,60.56
2022-08-09T22:12:09.135Z,60.79
2022-08-09T22:13:45.552Z,61.17
2022-08-09T22:15:47.943Z,61.49
2022-08-09T22:17:54.780Z,61.27
2022-08-09T22:20:00.294Z,61.73
2022-08-09T22:22:04.102Z,61.78
2022-08-09T22:24:07.186Z,61.86
2022-08-09T22:26:12.846Z,62.00
2022-08-09T22:28:32.799Z,62.02
2022-08-09T22:30:36.710Z,61.77
2022-08-09T22:32:39.138Z,62.06
2022-08-09T22:34:41.652Z,62.29
2022-08-09T22:36:46.384Z,62.13
2022-08-09T22:38:49.092Z,62.08
2022-08-09T22:40:57.752Z,62.03
2022-08-09T22:43:16.125Z,62.01
2022-08-09T22:48:10.523Z,61.80
2022-08-09T22:48:12.886Z,61.94
2022-08-09T22:50:11.077Z,62.01
2022-08-09T22:52:18.951Z,61.94
2022-08-09T22:54:23.223Z,61.95
2022-08-09T22:56:34.021Z,61.78
2022-08-09T22:58:37.931Z,61.75
2022-08-09T23:00:44.842Z,61.79
2022-08-09T23:02:51.930Z,61.69
2022-08-09T23:04:58.832Z,61.66
2022-08-09T23:07:10.928Z,61.62
2022-08-09T23:09:14.263Z,61.30
2022-08-09T23:11:22.470Z,61.67
2022-08-09T23:13:25.337Z,61.79
2022-08-09T23:15:29.883Z,61.73
2022-08-09T23:17:32.665Z,61.89
2022-08-09T23:20:01.047Z,61.64
2022-08-09T23:21:57.665Z,61.79
2022-08-09T23:24:05.995Z,61.58
2022-08-09T23:26:09.471Z,61.95
2022-08-09T23:28:15.780Z,62.11
2022-08-09T23:30:18.988Z,62.08
2022-08-09T23:32:22.389Z,61.74
2022-08-09T23:34:24.897Z,61.73
2022-08-09T23:36:27.593Z,61.71
2022-08-09T23:38:29.819Z,61.62
2022-08-09T23:40:32.617Z,62.21
2022-08-09T23:42:35.593Z,62.18
2022-08-09T23:44:38.193Z,62.46
2022-08-09T23:46:41.948Z,62.80
2022-08-09T23:48:46.277Z,62.39
2022-08-09T23:50:50.375Z,62.91
2022-08-09T23:52:57.352Z,62.72
2022-08-09T23:55:01.524Z,62.92
2022-08-09T23:57:06.463Z,62.86
2022-08-09T23:59:11.603Z,62.99
